Time;durP1;ratioP1;P1;durP2;ratioP2;P2;SDS_P1;SDS_P2;PMS_P1;PMS_P2;Temp;Humidity;BMP_temperature;BMP_pressure;BME280_temperature;BME280_humidity;BME280_pressure;Samples;Min_cycle;Max_cycle;Signal;HPM_P1;HPM_P2
2023/12/13 00:01:26;;;;;;;;;;;9.20;99.90;;;;;;4989877;28;20632;-66
2023/12/13 00:03:52;;;;;;;;;;;9.20;99.90;;;;;;4993919;28;19928;-66
2023/12/13 00:06:19;;;;;;;;;;;9.30;99.90;;;;;;4990865;28;19921;-66
2023/12/13 00:08:45;;;;;;;;;;;9.30;99.90;;;;;;4993126;28;20165;-66
2023/12/13 00:11:11;;;;;;;;;;;9.20;99.90;;;;;;4990153;28;19925;-66
2023/12/13 00:13:36;;;;;;;;;;;9.30;99.90;;;;;;4993428;28;20028;-66
2023/12/13 00:16:02;;;;;;;;;;;9.20;99.90;;;;;;4990108;28;19917;-66
2023/12/13 00:18:27;;;;;;;;;;;9.30;99.90;;;;;;4992580;28;19918;-66
2023/12/13 00:20:53;;;;;;;;;;;9.30;99.90;;;;;;4997585;28;20375;-66
2023/12/13 00:23:18;;;;;;;;;;;9.30;99.90;;;;;;4994482;28;19943;-66
2023/12/13 00:25:46;;;;;;;;;;;9.30;99.90;;;;;;4989896;28;19953;-66
2023/12/13 00:28:12;;;;;;;;;;;9.20;99.90;;;;;;4996055;28;20011;-66
2023/12/13 00:30:37;;;;;;;;;;;9.20;99.90;;;;;;4988292;28;20403;-66
2023/12/13 00:33:03;;;;;;;;;;;9.30;99.90;;;;;;4990692;28;20020;-66
2023/12/13 00:35:28;;;;;;;;;;;9.30;99.90;;;;;;4989538;28;19921;-66
2023/12/13 00:37:56;;;;;;;;;;;9.20;99.90;;;;;;4992719;28;20046;-66
2023/12/13 00:40:22;;;;;;;;;;;9.20;99.90;;;;;;4990547;28;20261;-66
2023/12/13 00:42:50;;;;;;;;;;;9.30;99.90;;;;;;4995610;28;20337;-66
2023/12/13 00:45:19;;;;;;;;;;;9.30;99.90;;;;;;4989216;28;20008;-66
2023/12/13 00:47:45;;;;;;;;;;;9.30;99.90;;;;;;4999575;23;19936;-66
2023/12/13 00:50:10;;;;;;;;;;;9.20;99.90;;;;;;4990732;28;19921;-66
2023/12/13 00:52:36;;;;;;;;;;;9.20;99.90;;;;;;4988466;28;19952;-66
2023/12/13 00:55:04;;;;;;;;;;;9.30;99.90;;;;;;5006009;28;19968;-66
2023/12/13 00:57:32;;;;;;;;;;;9.20;99.90;;;;;;4992076;28;19975;-66
2023/12/13 00:59:57;;;;;;;;;;;9.10;99.90;;;;;;4990891;28;19921;-66
2023/12/13 01:02:23;;;;;;;;;;;9.10;99.90;;;;;;4992216;28;20403;-66
2023/12/13 01:04:48;;;;;;;;;;;9.10;99.90;;;;;;4990914;28;19928;-66
2023/12/13 01:07:14;;;;;;;;;;;9.10;99.90;;;;;;4988907;28;19921;-66
2023/12/13 01:09:39;;;;;;;;;;;9.10;99.90;;;;;;4994568;28;19929;-66
2023/12/13 01:12:06;;;;;;;;;;;9.10;99.90;;;;;;4991708;28;19929;-66
2023/12/13 01:14:31;;;;;;;;;;;9.10;99.90;;;;;;4993880;28;19979;-66
2023/12/13 01:16:57;;;;;;;;;;;9.10;99.90;;;;;;4988992;28;20692;-66
2023/12/13 01:19:24;;;;;;;;;;;9.00;99.90;;;;;;4991417;28;19921;-66
2023/12/13 01:21:53;;;;;;;;;;;9.00;99.90;;;;;;4990122;28;20024;-66
2023/12/13 01:24:18;;;;;;;;;;;9.00;99.90;;;;;;4991457;28;20383;-66
2023/12/13 01:26:44;;;;;;;;;;;9.10;99.90;;;;;;4988669;28;19932;-66
2023/12/13 01:29:12;;;;;;;;;;;9.00;99.90;;;;;;4990296;28;19921;-66
2023/12/13 01:31:37;;;;;;;;;;;9.00;99.90;;;;;;4987987;28;20359;-66
2023/12/13 01:34:03;;;;;;;;;;;9.00;99.90;;;;;;4989191;28;19928;-66
2023/12/13 01:36:28;;;;;;;;;;;9.00;99.90;;;;;;4989623;28;19944;-66
2023/12/13 01:38:54;;;;;;;;;;;9.00;99.90;;;;;;4991708;28;19979;-66
2023/12/13 01:41:19;;;;;;;;;;;8.90;99.90;;;;;;4988391;28;19960;-66
2023/12/13 01:43:45;;;;;;;;;;;8.90;99.90;;;;;;4992932;28;20047;-66
2023/12/13 01:46:12;;;;;;;;;;;8.80;99.90;;;;;;4990190;28;19975;-66
2023/12/13 01:48:38;;;;;;;;;;;8.90;99.90;;;;;;4989524;28;19925;-66
2023/12/13 01:51:03;;;;;;;;;;;8.80;99.90;;;;;;4987887;28;19971;-66
2023/12/13 01:53:30;;;;;;;;;;;8.90;99.90;;;;;;4991539;28;19921;-66
2023/12/13 01:55:55;;;;;;;;;;;9.00;99.90;;;;;;4987968;28;20126;-66
2023/12/13 01:58:22;;;;;;;;;;;8.90;99.90;;;;;;4992686;28;19925;-66
2023/12/13 02:00:48;;;;;;;;;;;8.90;99.90;;;;;;4984149;28;19967;-64
2023/12/13 02:03:17;;;;;;;;;;;8.90;99.90;;;;;;4989731;28;20024;-66
2023/12/13 02:05:43;;;;;;;;;;;9.00;99.90;;;;;;4989092;28;19925;-66
2023/12/13 02:08:09;;;;;;;;;;;9.00;99.90;;;;;;4990837;28;19917;-66
2023/12/13 02:10:34;;;;;;;;;;;9.00;99.90;;;;;;4988934;28;19921;-66
2023/12/13 02:13:02;;;;;;;;;;;9.00;99.90;;;;;;4991437;28;19921;-66
2023/12/13 02:15:35;;;;;;;;;;;9.00;99.90;;;;;;4992388;28;20012;-66
2023/12/13 02:18:04;;;;;;;;;;;9.00;99.90;;;;;;4994003;28;19925;-66
2023/12/13 02:20:29;;;;;;;;;;;9.00;99.90;;;;;;4994358;28;19921;-66
2023/12/13 02:22:55;;;;;;;;;;;9.00;99.90;;;;;;4993740;28;22610;-66
2023/12/13 02:25:39;;;;;;;;;;;9.00;99.90;;;;;;4990465;28;19921;-66
2023/12/13 02:28:05;;;;;;;;;;;9.00;99.90;;;;;;5001550;28;19924;-66
2023/12/13 02:30:31;;;;;;;;;;;9.00;99.90;;;;;;5000242;28;19921;-66
2023/12/13 02:32:56;;;;;;;;;;;9.00;99.90;;;;;;4991967;28;19971;-66
2023/12/13 02:35:22;;;;;;;;;;;8.90;99.90;;;;;;4992067;28;19922;-66
2023/12/13 02:37:50;;;;;;;;;;;8.90;99.90;;;;;;4993277;28;19928;-66
2023/12/13 02:40:17;;;;;;;;;;;9.00;99.90;;;;;;4991967;28;19921;-66
2023/12/13 02:42:42;;;;;;;;;;;8.90;99.90;;;;;;4993240;28;20063;-66
2023/12/13 02:45:10;;;;;;;;;;;9.00;99.90;;;;;;4990772;28;19921;-66
2023/12/13 02:47:41;;;;;;;;;;;8.90;99.90;;;;;;4993277;28;19932;-66
2023/12/13 02:50:11;;;;;;;;;;;8.90;99.90;;;;;;4995110;28;20417;-66
2023/12/13 02:52:36;;;;;;;;;;;8.90;99.90;;;;;;4992934;28;20399;-66
2023/12/13 02:55:02;;;;;;;;;;;8.90;99.90;;;;;;4990376;28;19921;-66
2023/12/13 02:57:30;;;;;;;;;;;8.80;99.90;;;;;;4991310;28;19917;-66
2023/12/13 02:59:55;;;;;;;;;;;8.90;99.90;;;;;;4992544;28;19922;-66
2023/12/13 03:02:21;;;;;;;;;;;9.00;99.90;;;;;;4994115;28;19967;-66
2023/12/13 03:04:48;;;;;;;;;;;8.90;99.90;;;;;;4994880;28;22492;-66
2023/12/13 03:07:14;;;;;;;;;;;8.80;99.90;;;;;;4990217;28;19928;-66
2023/12/13 03:09:41;;;;;;;;;;;8.90;99.90;;;;;;4995861;28;19921;-66
2023/12/13 03:12:07;;;;;;;;;;;8.80;99.90;;;;;;5004726;28;20536;-66
2023/12/13 03:14:32;;;;;;;;;;;8.90;99.90;;;;;;4995646;28;19922;-66
2023/12/13 03:16:58;;;;;;;;;;;9.00;99.90;;;;;;4989639;28;20041;-66
2023/12/13 03:19:24;;;;;;;;;;;9.00;99.90;;;;;;4993059;28;19917;-66
2023/12/13 03:21:49;;;;;;;;;;;9.10;99.90;;;;;;4989514;28;19996;-66
2023/12/13 03:24:15;;;;;;;;;;;9.10;99.90;;;;;;4997099;28;19922;-66
2023/12/13 03:26:42;;;;;;;;;;;9.10;99.90;;;;;;4991614;28;19925;-66
2023/12/13 03:29:10;;;;;;;;;;;9.10;99.90;;;;;;4993149;28;20035;-66
2023/12/13 03:31:36;;;;;;;;;;;9.10;99.90;;;;;;4990114;28;20486;-66
2023/12/13 03:34:03;;;;;;;;;;;9.10;99.90;;;;;;4991315;28;20045;-66
2023/12/13 03:36:29;;;;;;;;;;;9.20;99.90;;;;;;4990959;28;20012;-66
2023/12/13 03:38:57;;;;;;;;;;;9.20;99.90;;;;;;4991954;28;19921;-66
2023/12/13 03:41:25;;;;;;;;;;;9.20;99.90;;;;;;4990965;28;19914;-66
2023/12/13 03:43:50;;;;;;;;;;;9.20;99.90;;;;;;4992751;28;19918;-66
2023/12/13 03:46:16;;;;;;;;;;;9.30;99.90;;;;;;4990752;28;20632;-66
2023/12/13 03:48:42;;;;;;;;;;;9.30;99.90;;;;;;4992950;28;20342;-66
2023/12/13 03:51:07;;;;;;;;;;;9.40;99.90;;;;;;4992069;28;20043;-66
2023/12/13 03:53:33;;;;;;;;;;;9.40;99.90;;;;;;4990658;28;19921;-66
2023/12/13 03:56:00;;;;;;;;;;;9.40;99.90;;;;;;4990146;28;19928;-66
2023/12/13 03:58:26;;;;;;;;;;;9.40;99.90;;;;;;4992129;28;19921;-66
2023/12/13 04:00:51;;;;;;;;;;;9.50;99.90;;;;;;4989755;28;19933;-66
2023/12/13 04:03:17;;;;;;;;;;;9.40;99.90;;;;;;4992639;28;19953;-66
2023/12/13 04:05:42;;;;;;;;;;;9.50;99.90;;;;;;4990825;28;19940;-66
2023/12/13 04:08:08;;;;;;;;;;;9.50;99.90;;;;;;4992035;28;19917;-66
2023/12/13 04:10:34;;;;;;;;;;;9.40;99.90;;;;;;4989133;28;19921;-66
2023/12/13 04:12:59;;;;;;;;;;;9.50;99.90;;;;;;4990963;28;19921;-66
2023/12/13 04:15:27;;;;;;;;;;;9.50;99.90;;;;;;4990112;28;19920;-66
2023/12/13 04:17:52;;;;;;;;;;;9.50;99.90;;;;;;4992623;28;20366;-66
2023/12/13 04:20:18;;;;;;;;;;;9.40;99.90;;;;;;4991084;28;19922;-66
2023/12/13 04:22:46;;;;;;;;;;;9.40;99.90;;;;;;4993130;28;20207;-66
2023/12/13 04:25:12;;;;;;;;;;;9.40;99.90;;;;;;4992168;28;19935;-66
2023/12/13 04:27:40;;;;;;;;;;;9.50;99.90;;;;;;4991245;28;19999;-66
2023/12/13 04:30:08;;;;;;;;;;;9.50;99.90;;;;;;4989804;28;19960;-66
2023/12/13 04:32:33;;;;;;;;;;;9.50;99.90;;;;;;4992583;28;20310;-66
2023/12/13 04:34:59;;;;;;;;;;;9.50;99.90;;;;;;4988538;28;19922;-66
2023/12/13 04:37:24;;;;;;;;;;;9.50;99.90;;;;;;5004570;28;19925;-66
2023/12/13 04:39:50;;;;;;;;;;;9.60;99.90;;;;;;4990270;28;20272;-66
2023/12/13 04:42:18;;;;;;;;;;;9.60;99.90;;;;;;4994841;28;19920;-66
2023/12/13 04:44:43;;;;;;;;;;;9.60;99.90;;;;;;4992322;28;19966;-66
2023/12/13 04:47:11;;;;;;;;;;;9.50;99.90;;;;;;4988082;28;19980;-66
2023/12/13 04:49:37;;;;;;;;;;;9.50;99.90;;;;;;4990287;28;19921;-66
2023/12/13 04:52:03;;;;;;;;;;;9.50;99.90;;;;;;4988750;28;20270;-66
2023/12/13 04:54:29;;;;;;;;;;;9.40;99.90;;;;;;4990119;28;21523;-66
2023/12/13 04:56:55;;;;;;;;;;;9.40;99.90;;;;;;4991581;28;19925;-66
2023/12/13 04:59:23;;;;;;;;;;;9.30;99.90;;;;;;4990676;28;19921;-66
2023/12/13 05:01:51;;;;;;;;;;;9.30;99.90;;;;;;4988274;28;19921;-66
2023/12/13 05:04:16;;;;;;;;;;;9.30;99.90;;;;;;4993819;28;19921;-66
2023/12/13 05:06:42;;;;;;;;;;;9.30;99.90;;;;;;4992145;28;19960;-66
2023/12/13 05:09:09;;;;;;;;;;;9.40;99.90;;;;;;4993385;28;19921;-66
2023/12/13 05:11:37;;;;;;;;;;;9.30;99.90;;;;;;4990710;28;22101;-66
2023/12/13 05:14:04;;;;;;;;;;;9.40;99.90;;;;;;4991120;28;19925;-66
2023/12/13 05:16:32;;;;;;;;;;;9.40;99.90;;;;;;4989566;28;19921;-66
2023/12/13 05:18:58;;;;;;;;;;;9.40;99.90;;;;;;4992414;28;20041;-66
2023/12/13 05:21:23;;;;;;;;;;;9.40;99.90;;;;;;4992578;28;20384;-66
2023/12/13 05:23:49;;;;;;;;;;;9.40;99.90;;;;;;4992159;28;20075;-66
2023/12/13 05:26:14;;;;;;;;;;;9.30;99.90;;;;;;4989371;28;19971;-66
2023/12/13 05:28:40;;;;;;;;;;;9.30;99.90;;;;;;4989744;28;20382;-66
2023/12/13 05:31:05;;;;;;;;;;;9.30;99.90;;;;;;4991448;28;19987;-66
2023/12/13 05:33:33;;;;;;;;;;;9.30;99.90;;;;;;4990194;28;20008;-66
2023/12/13 05:36:01;;;;;;;;;;;9.40;99.90;;;;;;4988642;28;19932;-66
2023/12/13 05:38:26;;;;;;;;;;;9.30;99.90;;;;;;4991424;28;20420;-66
2023/12/13 05:40:51;;;;;;;;;;;9.40;99.90;;;;;;4989421;28;19931;-66
2023/12/13 05:43:19;;;;;;;;;;;9.40;99.90;;;;;;4988873;28;19928;-66
2023/12/13 05:45:45;;;;;;;;;;;9.40;99.90;;;;;;4987394;28;19927;-66
2023/12/13 05:48:10;;;;;;;;;;;9.40;99.90;;;;;;4991778;28;20038;-66
2023/12/13 05:50:36;;;;;;;;;;;9.40;99.90;;;;;;4991047;28;20376;-66
2023/12/13 05:53:01;;;;;;;;;;;9.40;99.90;;;;;;4992626;28;20019;-66
2023/12/13 05:55:27;;;;;;;;;;;9.40;99.90;;;;;;4986703;28;19926;-66
2023/12/13 05:57:53;;;;;;;;;;;9.30;99.90;;;;;;4990875;28;19921;-66
2023/12/13 06:00:19;;;;;;;;;;;9.40;99.90;;;;;;5006130;28;19952;-66
2023/12/13 06:02:44;;;;;;;;;;;9.40;99.90;;;;;;4989936;28;19940;-66
2023/12/13 06:05:10;;;;;;;;;;;9.40;99.90;;;;;;4993493;28;22888;-65
2023/12/13 06:07:36;;;;;;;;;;;9.40;99.90;;;;;;4997660;28;19917;-64
2023/12/13 06:10:03;;;;;;;;;;;9.40;99.90;;;;;;4989835;28;20198;-64
2023/12/13 06:12:29;;;;;;;;;;;9.40;99.90;;;;;;4990148;28;19925;-65
2023/12/13 06:14:58;;;;;;;;;;;9.50;99.90;;;;;;4988027;28;19956;-65
2023/12/13 06:17:23;;;;;;;;;;;9.50;99.90;;;;;;4988807;28;20561;-65
2023/12/13 06:19:51;;;;;;;;;;;9.40;99.90;;;;;;4990279;28;19917;-65
2023/12/13 06:22:17;;;;;;;;;;;9.50;99.90;;;;;;4988850;28;19921;-65
2023/12/13 06:24:42;;;;;;;;;;;9.50;99.90;;;;;;4988123;28;19928;-66
2023/12/13 06:27:08;;;;;;;;;;;9.60;99.90;;;;;;4992223;28;20654;-65
2023/12/13 06:29:34;;;;;;;;;;;9.60;99.90;;;;;;4988510;28;19921;-65
2023/12/13 06:32:00;;;;;;;;;;;9.50;99.90;;;;;;4988769;28;19925;-65
2023/12/13 06:34:25;;;;;;;;;;;9.50;99.90;;;;;;4990070;28;19925;-64
2023/12/13 06:36:53;;;;;;;;;;;9.40;99.90;;;;;;4988920;28;21047;-65
2023/12/13 06:39:21;;;;;;;;;;;9.50;99.90;;;;;;4989764;28;20315;-65
2023/12/13 06:41:47;;;;;;;;;;;9.50;99.90;;;;;;4988808;28;19979;-65
2023/12/13 06:44:12;;;;;;;;;;;9.50;99.90;;;;;;4986995;28;19921;-65
2023/12/13 06:46:40;;;;;;;;;;;9.40;99.90;;;;;;4997066;23;19960;-65
2023/12/13 06:49:09;;;;;;;;;;;9.40;99.90;;;;;;5034654;28;19928;-65
2023/12/13 06:51:35;;;;;;;;;;;9.40;99.90;;;;;;5037983;28;19929;-65
2023/12/13 06:54:00;;;;;;;;;;;9.40;99.90;;;;;;5013931;28;19921;-65
2023/12/13 06:56:28;;;;;;;;;;;9.40;99.90;;;;;;5003341;28;19943;-65
2023/12/13 06:58:54;;;;;;;;;;;9.30;99.90;;;;;;5011749;28;19917;-66
2023/12/13 07:01:21;;;;;;;;;;;9.30;99.90;;;;;;5001673;28;20024;-66
2023/12/13 07:03:46;;;;;;;;;;;9.40;99.90;;;;;;5005386;28;19927;-66
2023/12/13 07:06:16;;;;;;;;;;;9.30;99.90;;;;;;5007763;28;20110;-66
2023/12/13 07:08:41;;;;;;;;;;;9.30;99.90;;;;;;5007941;28;20001;-64
2023/12/13 07:11:07;;;;;;;;;;;9.30;99.90;;;;;;4989011;28;19921;-64
2023/12/13 07:13:33;;;;;;;;;;;9.30;99.90;;;;;;5012772;28;20051;-65
2023/12/13 07:15:58;;;;;;;;;;;9.40;99.90;;;;;;5005559;28;19974;-66
2023/12/13 07:18:25;;;;;;;;;;;9.40;99.90;;;;;;5007956;28;20027;-66
2023/12/13 07:20:51;;;;;;;;;;;9.50;99.90;;;;;;5007440;28;20687;-66
2023/12/13 07:23:16;;;;;;;;;;;9.50;99.90;;;;;;5006231;28;20331;-64
2023/12/13 07:25:42;;;;;;;;;;;9.50;99.90;;;;;;5008981;28;20015;-65
2023/12/13 07:28:08;;;;;;;;;;;9.40;99.90;;;;;;5008306;28;20001;-65
2023/12/13 07:30:34;;;;;;;;;;;9.40;99.90;;;;;;5006941;28;19921;-66
2023/12/13 07:32:59;;;;;;;;;;;9.40;99.90;;;;;;5001792;28;19925;-65
2023/12/13 07:35:26;;;;;;;;;;;9.40;99.90;;;;;;5005622;28;19927;-65
2023/12/13 07:37:52;;;;;;;;;;;9.50;99.90;;;;;;5006349;28;20061;-65
2023/12/13 07:40:17;;;;;;;;;;;9.50;99.90;;;;;;5006271;28;20057;-66
2023/12/13 07:42:48;;;;;;;;;;;9.50;99.90;;;;;;5005782;28;20342;-66
2023/12/13 07:45:16;;;;;;;;;;;9.50;99.90;;;;;;5006493;28;19921;-66
2023/12/13 07:47:43;;;;;;;;;;;9.60;99.90;;;;;;5005871;28;19933;-66
2023/12/13 07:50:09;;;;;;;;;;;9.60;99.90;;;;;;5007720;28;19979;-66
2023/12/13 07:52:34;;;;;;;;;;;9.60;99.90;;;;;;5005866;28;20138;-65
2023/12/13 07:55:00;;;;;;;;;;;9.60;99.90;;;;;;5007637;28;20405;-66
2023/12/13 07:57:26;;;;;;;;;;;9.60;99.90;;;;;;5005828;28;20310;-66
2023/12/13 07:59:51;;;;;;;;;;;9.60;99.90;;;;;;5008491;28;20007;-66
2023/12/13 08:02:20;;;;;;;;;;;9.50;99.90;;;;;;5003716;28;22143;-66
2023/12/13 08:04:46;;;;;;;;;;;9.60;99.90;;;;;;5005381;28;19921;-66
2023/12/13 08:07:11;;;;;;;;;;;9.60;99.90;;;;;;5005243;28;19921;-66
2023/12/13 08:09:39;;;;;;;;;;;9.60;99.90;;;;;;5006384;28;20253;-66
2023/12/13 08:12:05;;;;;;;;;;;9.60;99.90;;;;;;5005529;28;20962;-66
2023/12/13 08:14:32;;;;;;;;;;;9.60;99.90;;;;;;5006515;28;20006;-66
2023/12/13 08:16:58;;;;;;;;;;;9.60;99.90;;;;;;5005073;28;19921;-66
2023/12/13 08:19:26;;;;;;;;;;;9.60;99.90;;;;;;5005675;28;22386;-66
2023/12/13 08:21:53;;;;;;;;;;;9.60;99.90;;;;;;5005826;28;19950;-66
2023/12/13 08:24:21;;;;;;;;;;;9.60;99.90;;;;;;5006372;28;19920;-66
2023/12/13 08:26:46;;;;;;;;;;;9.60;99.90;;;;;;5003954;28;19920;-66
2023/12/13 08:29:12;;;;;;;;;;;9.60;99.90;;;;;;5004908;28;20797;-66
2023/12/13 08:31:37;;;;;;;;;;;9.70;99.90;;;;;;5006420;28;20536;-68
2023/12/13 08:34:03;;;;;;;;;;;9.70;99.90;;;;;;5009142;28;19927;-66
2023/12/13 08:36:30;;;;;;;;;;;9.70;99.90;;;;;;5003948;28;20951;-66
2023/12/13 08:38:56;;;;;;;;;;;9.80;99.90;;;;;;5005469;28;20196;-66
2023/12/13 08:41:21;;;;;;;;;;;9.80;99.90;;;;;;5006184;28;19928;-66
2023/12/13 08:43:47;;;;;;;;;;;9.80;99.90;;;;;;5005275;28;19952;-66
2023/12/13 08:46:15;;;;;;;;;;;9.80;99.90;;;;;;5005559;28;19929;-66
2023/12/13 08:48:40;;;;;;;;;;;9.80;99.90;;;;;;5004683;28;19925;-66
2023/12/13 08:51:06;;;;;;;;;;;9.80;99.90;;;;;;5006237;28;20283;-66
2023/12/13 08:53:31;;;;;;;;;;;9.90;99.90;;;;;;5005338;28;20059;-66
2023/12/13 08:55:57;;;;;;;;;;;9.90;99.90;;;;;;5006928;28;20422;-66
2023/12/13 08:58:22;;;;;;;;;;;9.80;99.90;;;;;;5005613;28;20743;-66
2023/12/13 09:00:48;;;;;;;;;;;9.90;99.90;;;;;;5009639;28;19952;-66
2023/12/13 09:03:16;;;;;;;;;;;10.00;99.90;;;;;;5007007;28;20043;-66
2023/12/13 09:05:41;;;;;;;;;;;9.90;99.90;;;;;;5012950;28;20039;-66
2023/12/13 09:08:07;;;;;;;;;;;10.00;99.90;;;;;;5008548;28;20118;-66
2023/12/13 09:10:35;;;;;;;;;;;10.00;99.90;;;;;;5009755;28;19956;-66
2023/12/13 09:13:03;;;;;;;;;;;10.00;99.90;;;;;;5006928;28;19932;-66
2023/12/13 09:15:29;;;;;;;;;;;10.00;99.90;;;;;;5009188;28;19924;-66
2023/12/13 09:18:00;;;;;;;;;;;10.10;99.90;;;;;;5007731;28;20371;-66
2023/12/13 09:20:26;;;;;;;;;;;10.10;99.90;;;;;;5010940;28;19921;-66
2023/12/13 09:22:51;;;;;;;;;;;10.20;99.90;;;;;;5007923;28;20063;-66
2023/12/13 09:25:17;;;;;;;;;;;10.20;99.90;;;;;;5008879;28;21012;-66
2023/12/13 09:27:43;;;;;;;;;;;10.10;99.90;;;;;;5008353;28;20015;-66
2023/12/13 09:30:14;;;;;;;;;;;10.20;99.90;;;;;;5007881;28;20734;-66
2023/12/13 09:32:42;;;;;;;;;;;10.20;99.90;;;;;;5017366;28;19968;-66
2023/12/13 09:35:08;;;;;;;;;;;10.30;99.90;;;;;;5014673;28;20189;-66
2023/12/13 09:37:34;;;;;;;;;;;10.30;99.90;;;;;;5010440;28;19921;-66
2023/12/13 09:40:02;;;;;;;;;;;10.40;99.90;;;;;;5010162;28;20538;-66
2023/12/13 09:42:29;;;;;;;;;;;10.40;99.90;;;;;;5006703;28;19927;-66
2023/12/13 09:44:55;;;;;;;;;;;10.40;99.90;;;;;;5011269;28;19963;-66
2023/12/13 09:47:22;;;;;;;;;;;10.50;99.90;;;;;;5006995;28;19921;-66
2023/12/13 09:49:49;;;;;;;;;;;10.50;99.90;;;;;;5008790;28;20305;-66
2023/12/13 09:52:18;;;;;;;;;;;10.50;99.90;;;;;;5007277;28;19931;-66
2023/12/13 09:54:44;;;;;;;;;;;10.40;99.90;;;;;;5008482;28;19927;-66
2023/12/13 09:57:10;;;;;;;;;;;10.40;99.90;;;;;;5005898;28;19921;-66
2023/12/13 09:59:35;;;;;;;;;;;10.50;99.90;;;;;;5012132;28;20448;-66
2023/12/13 10:02:03;;;;;;;;;;;10.50;99.90;;;;;;5014062;28;20001;-63
2023/12/13 10:04:29;;;;;;;;;;;10.40;99.90;;;;;;5010092;28;19928;-66
2023/12/13 10:06:55;;;;;;;;;;;10.40;99.90;;;;;;5008317;28;20411;-66
2023/12/13 10:09:20;;;;;;;;;;;10.40;99.90;;;;;;5008286;28;20039;-66
2023/12/13 10:11:46;;;;;;;;;;;10.50;99.90;;;;;;5007145;28;19981;-66
2023/12/13 10:14:12;;;;;;;;;;;10.50;99.90;;;;;;5010721;28;20282;-66
2023/12/13 10:16:38;;;;;;;;;;;10.50;99.90;;;;;;5006807;28;19925;-66
2023/12/13 10:19:06;;;;;;;;;;;10.50;99.90;;;;;;5009451;28;20466;-66
2023/12/13 10:21:35;;;;;;;;;;;10.40;99.90;;;;;;5007318;28;19921;-66
2023/12/13 10:24:01;;;;;;;;;;;10.40;99.90;;;;;;5011158;28;19944;-66
2023/12/13 10:26:26;;;;;;;;;;;10.40;99.90;;;;;;5006840;28;19940;-66
2023/12/13 10:28:53;;;;;;;;;;;10.40;99.90;;;;;;5010277;28;20359;-66
2023/12/13 10:31:22;;;;;;;;;;;10.40;99.90;;;;;;5020002;28;20623;-66
2023/12/13 10:33:48;;;;;;;;;;;10.40;99.90;;;;;;5010538;28;20383;-66
2023/12/13 10:36:16;;;;;;;;;;;10.40;99.90;;;;;;5011019;28;20107;-66
2023/12/13 10:38:46;;;;;;;;;;;10.40;99.90;;;;;;5014549;28;19978;-66
2023/12/13 10:41:13;;;;;;;;;;;10.40;99.90;;;;;;5016343;28;19978;-66
2023/12/13 10:43:41;;;;;;;;;;;10.40;99.90;;;;;;5015118;28;20010;-66
2023/12/13 10:46:08;;;;;;;;;;;10.40;99.90;;;;;;5012291;28;19921;-66
2023/12/13 10:48:37;;;;;;;;;;;10.50;99.90;;;;;;5015692;28;19920;-66
2023/12/13 10:51:07;;;;;;;;;;;10.40;99.90;;;;;;5015024;28;19971;-66
2023/12/13 10:53:33;;;;;;;;;;;10.40;99.90;;;;;;5017463;28;22194;-66
2023/12/13 10:56:01;;;;;;;;;;;10.30;99.90;;;;;;5012941;28;19917;-66
2023/12/13 10:58:27;;;;;;;;;;;10.30;99.90;;;;;;5015045;28;19921;-66
2023/12/13 11:00:53;;;;;;;;;;;10.30;99.90;;;;;;5017045;28;20116;-66
2023/12/13 11:03:22;;;;;;;;;;;10.30;99.90;;;;;;5014372;28;20688;-67
2023/12/13 11:05:47;;;;;;;;;;;10.20;99.90;;;;;;5016284;28;19920;-66
2023/12/13 11:08:14;;;;;;;;;;;10.20;99.90;;;;;;5013748;28;20390;-66
2023/12/13 11:10:40;;;;;;;;;;;10.20;99.90;;;;;;5012945;28;19928;-66
2023/12/13 11:13:08;;;;;;;;;;;10.20;99.90;;;;;;5012913;28;19925;-66
2023/12/13 11:15:41;;;;;;;;;;;10.20;99.90;;;;;;5016465;28;20007;-66
2023/12/13 11:18:09;;;;;;;;;;;10.20;99.90;;;;;;5016996;28;19931;-66
2023/12/13 11:20:46;;;;;;;;;;;10.30;99.90;;;;;;5015586;28;21673;-66
2023/12/13 11:23:13;;;;;;;;;;;10.40;99.90;;;;;;5014831;28;20517;-66
2023/12/13 11:25:41;;;;;;;;;;;10.40;99.90;;;;;;5015375;28;20149;-66
2023/12/13 11:28:06;;;;;;;;;;;10.30;99.90;;;;;;5013473;28;19971;-66
2023/12/13 11:30:32;;;;;;;;;;;10.40;99.90;;;;;;5015161;28;19921;-66
2023/12/13 11:32:57;;;;;;;;;;;10.40;99.90;;;;;;5013997;28;19921;-67
2023/12/13 11:35:25;;;;;;;;;;;10.40;99.90;;;;;;5013966;28;19929;-66
2023/12/13 11:37:51;;;;;;;;;;;10.50;99.90;;;;;;5014047;28;20280;-66
2023/12/13 11:40:17;;;;;;;;;;;10.50;99.90;;;;;;5014201;28;19982;-66
2023/12/13 11:42:44;;;;;;;;;;;10.50;99.90;;;;;;5014926;28;19935;-66
2023/12/13 11:45:10;;;;;;;;;;;10.50;99.90;;;;;;5014420;28;20007;-66
2023/12/13 11:47:38;;;;;;;;;;;10.40;99.90;;;;;;5013417;28;19925;-66
2023/12/13 11:50:04;;;;;;;;;;;10.60;99.90;;;;;;5016852;28;20171;-66
2023/12/13 11:52:29;;;;;;;;;;;10.60;99.90;;;;;;5012561;28;19925;-66
2023/12/13 11:54:56;;;;;;;;;;;10.60;99.90;;;;;;5011934;28;19929;-66
2023/12/13 11:57:22;;;;;;;;;;;10.70;99.90;;;;;;5010876;28;20099;-66
2023/12/13 11:59:48;;;;;;;;;;;10.70;99.90;;;;;;5015116;28;19928;-66
2023/12/13 12:02:16;;;;;;;;;;;10.70;99.90;;;;;;5012862;28;19917;-66
2023/12/13 12:04:42;;;;;;;;;;;10.60;99.90;;;;;;5014310;28;20318;-66
2023/12/13 12:07:14;;;;;;;;;;;10.60;99.90;;;;;;5011099;28;19920;-67
2023/12/13 12:09:40;;;;;;;;;;;10.60;99.90;;;;;;5017010;28;19917;-66
2023/12/13 12:12:05;;;;;;;;;;;10.60;99.90;;;;;;5017326;28;19921;-66
2023/12/13 12:14:33;;;;;;;;;;;10.60;99.90;;;;;;5014186;28;20081;-66
2023/12/13 12:17:02;;;;;;;;;;;10.60;99.90;;;;;;5014922;28;20012;-66
2023/12/13 12:19:27;;;;;;;;;;;10.70;99.90;;;;;;5015251;28;20790;-66
2023/12/13 12:21:53;;;;;;;;;;;10.70;99.90;;;;;;5013151;28;20340;-66
2023/12/13 12:24:18;;;;;;;;;;;10.80;99.90;;;;;;5013416;28;19920;-66
2023/12/13 12:26:44;;;;;;;;;;;10.70;99.90;;;;;;5009430;28;19952;-66
2023/12/13 12:29:10;;;;;;;;;;;10.70;99.90;;;;;;5012415;28;20130;-66
2023/12/13 12:31:36;;;;;;;;;;;10.70;99.90;;;;;;5010580;28;20638;-66
2023/12/13 12:34:02;;;;;;;;;;;10.70;99.90;;;;;;5012843;28;19921;-66
2023/12/13 12:36:29;;;;;;;;;;;10.70;99.90;;;;;;5011172;28;19936;-66
2023/12/13 12:38:55;;;;;;;;;;;10.80;99.90;;;;;;5016066;28;20361;-67
2023/12/13 12:41:22;;;;;;;;;;;10.90;99.90;;;;;;5011432;28;19921;-66
2023/12/13 12:43:49;;;;;;;;;;;10.90;99.90;;;;;;5013263;28;20543;-66
2023/12/13 12:46:16;;;;;;;;;;;10.90;99.90;;;;;;5010551;28;20035;-67
2023/12/13 12:48:42;;;;;;;;;;;10.90;99.90;;;;;;4991380;23;19933;-66
2023/12/13 12:51:08;;;;;;;;;;;10.90;99.90;;;;;;4992646;28;19932;-66
2023/12/13 12:53:34;;;;;;;;;;;10.90;99.90;;;;;;4979004;28;19917;-66
2023/12/13 12:55:59;;;;;;;;;;;10.90;99.90;;;;;;4973683;28;19933;-66
2023/12/13 12:58:25;;;;;;;;;;;10.90;99.90;;;;;;4978190;28;20771;-66
2023/12/13 13:00:51;;;;;;;;;;;10.90;99.90;;;;;;4979173;28;19979;-66
2023/12/13 13:03:17;;;;;;;;;;;10.80;99.90;;;;;;4977688;28;20599;-66
2023/12/13 13:05:44;;;;;;;;;;;10.70;99.90;;;;;;4980058;28;19917;-66
2023/12/13 13:08:09;;;;;;;;;;;10.70;99.90;;;;;;4978432;28;20348;-66
2023/12/13 13:10:35;;;;;;;;;;;10.70;99.90;;;;;;4977329;28;20656;-66
2023/12/13 13:13:00;;;;;;;;;;;10.80;99.90;;;;;;4980590;28;19929;-66
2023/12/13 13:15:26;;;;;;;;;;;10.70;99.90;;;;;;4977364;28;19939;-66
2023/12/13 13:17:51;;;;;;;;;;;10.70;99.90;;;;;;4977126;28;19922;-66
2023/12/13 13:20:18;;;;;;;;;;;10.80;99.90;;;;;;4978445;28;20410;-66
2023/12/13 13:22:45;;;;;;;;;;;10.70;99.90;;;;;;4978844;28;19921;-67
2023/12/13 13:25:13;;;;;;;;;;;10.80;99.90;;;;;;4978130;28;19928;-66
2023/12/13 13:27:41;;;;;;;;;;;10.80;99.90;;;;;;4990691;28;20197;-66
2023/12/13 13:30:07;;;;;;;;;;;10.90;99.90;;;;;;4978640;28;20019;-66
2023/12/13 13:32:33;;;;;;;;;;;10.90;99.90;;;;;;4978134;28;19932;-66
2023/12/13 13:34:59;;;;;;;;;;;10.90;99.90;;;;;;4978650;28;19921;-66
2023/12/13 13:37:25;;;;;;;;;;;10.90;99.90;;;;;;4978679;28;19924;-66
2023/12/13 13:39:50;;;;;;;;;;;11.00;99.90;;;;;;4978777;28;20125;-66
2023/12/13 13:42:16;;;;;;;;;;;10.90;99.90;;;;;;4975867;28;19961;-66
2023/12/13 13:44:46;;;;;;;;;;;10.90;99.90;;;;;;4979457;28;19965;-66
2023/12/13 13:47:15;;;;;;;;;;;10.90;99.90;;;;;;4978148;28;19925;-66
2023/12/13 13:49:40;;;;;;;;;;;10.80;99.90;;;;;;4980019;28;19919;-66
2023/12/13 13:52:08;;;;;;;;;;;10.90;99.90;;;;;;4975254;28;20422;-66
2023/12/13 13:54:34;;;;;;;;;;;10.80;99.90;;;;;;4978788;28;19925;-66
2023/12/13 13:56:59;;;;;;;;;;;10.80;99.90;;;;;;4978654;28;19947;-66
2023/12/13 13:59:25;;;;;;;;;;;10.80;99.90;;;;;;4979993;28;19928;-66
2023/12/13 14:01:53;;;;;;;;;;;10.80;99.90;;;;;;4978350;28;20319;-66
2023/12/13 14:04:21;;;;;;;;;;;10.80;99.90;;;;;;4977950;28;20344;-66
2023/12/13 14:06:47;;;;;;;;;;;10.90;99.90;;;;;;4978726;28;20355;-66
2023/12/13 14:09:12;;;;;;;;;;;10.80;99.90;;;;;;4980932;28;20384;-66
2023/12/13 14:11:38;;;;;;;;;;;10.80;99.90;;;;;;4981593;28;19937;-67
2023/12/13 14:14:05;;;;;;;;;;;10.80;99.90;;;;;;4983232;28;20351;-66
2023/12/13 14:16:31;;;;;;;;;;;10.90;99.90;;;;;;4980951;28;20657;-66
2023/12/13 14:19:01;;;;;;;;;;;10.90;99.90;;;;;;4981581;28;19948;-66
2023/12/13 14:21:26;;;;;;;;;;;10.80;99.90;;;;;;4982167;28;20396;-66